sensor_id;sensor_type;location;lat;lon;timestamp;temperature;humidity
51619;DHT22;38518;53.164;5.430;2023-02-23T00:01:29;7.30;99.90
51619;DHT22;38518;53.164;5.430;2023-02-23T00:03:59;7.30;99.90
51619;DHT22;38518;53.164;5.430;2023-02-23T00:06:27;7.30;99.90
51619;DHT22;38518;53.164;5.430;2023-02-23T00:08:53;7.30;99.90
51619;DHT22;38518;53.164;5.430;2023-02-23T00:11:20;7.30;99.90
51619;DHT22;38518;53.164;5.430;2023-02-23T00:13:48;7.30;99.90
51619;DHT22;38518;53.164;5.430;2023-02-23T00:16:19;7.30;99.90
51619;DHT22;38518;53.164;5.430;2023-02-23T00:18:56;7.30;99.90
51619;DHT22;38518;53.164;5.430;2023-02-23T00:21:31;7.30;99.90
51619;DHT22;38518;53.164;5.430;2023-02-23T00:24:01;7.70;99.90
51619;DHT22;38518;53.164;5.430;2023-02-23T00:26:29;6.30;99.90
51619;DHT22;38518;53.164;5.430;2023-02-23T00:28:57;7.20;99.90
51619;DHT22;38518;53.164;5.430;2023-02-23T00:31:24;8.00;99.90
51619;DHT22;38518;53.164;5.430;2023-02-23T00:33:53;7.20;99.90
51619;DHT22;38518;53.164;5.430;2023-02-23T00:36:21;7.20;99.90
51619;DHT22;38518;53.164;5.430;2023-02-23T00:38:52;7.20;99.90
51619;DHT22;38518;53.164;5.430;2023-02-23T00:41:18;7.20;99.90
51619;DHT22;38518;53.164;5.430;2023-02-23T00:43:49;7.20;99.90
51619;DHT22;38518;53.164;5.430;2023-02-23T00:46:21;7.10;99.90
51619;DHT22;38518;53.164;5.430;2023-02-23T00:48:48;7.20;99.90
51619;DHT22;38518;53.164;5.430;2023-02-23T00:51:15;7.10;99.90
51619;DHT22;38518;53.164;5.430;2023-02-23T00:53:41;7.10;99.90
51619;DHT22;38518;53.164;5.430;2023-02-23T00:56:09;7.10;99.90
51619;DHT22;38518;53.164;5.430;2023-02-23T00:58:36;7.20;99.90
51619;DHT22;38518;53.164;5.430;2023-02-23T01:01:05;7.50;99.90
51619;DHT22;38518;53.164;5.430;2023-02-23T01:03:31;7.20;99.90
51619;DHT22;38518;53.164;5.430;2023-02-23T01:06:01;7.20;99.90
51619;DHT22;38518;53.164;5.430;2023-02-23T01:08:30;7.70;99.90
51619;DHT22;38518;53.164;5.430;2023-02-23T01:10:56;7.20;99.90
51619;DHT22;38518;53.164;5.430;2023-02-23T01:13:23;7.10;99.90
51619;DHT22;38518;53.164;5.430;2023-02-23T01:15:51;7.20;99.90
51619;DHT22;38518;53.164;5.430;2023-02-23T01:18:18;5.90;99.90
51619;DHT22;38518;53.164;5.430;2023-02-23T01:20:45;7.10;99.90
51619;DHT22;38518;53.164;5.430;2023-02-23T01:23:14;7.10;99.90
51619;DHT22;38518;53.164;5.430;2023-02-23T01:25:44;7.00;99.90
51619;DHT22;38518;53.164;5.430;2023-02-23T01:28:10;7.00;99.90
51619;DHT22;38518;53.164;5.430;2023-02-23T01:30:37;6.90;99.90
51619;DHT22;38518;53.164;5.430;2023-02-23T01:33:03;6.80;99.90
51619;DHT22;38518;53.164;5.430;2023-02-23T01:35:29;6.80;99.90
51619;DHT22;38518;53.164;5.430;2023-02-23T01:37:55;7.10;99.90
51619;DHT22;38518;53.164;5.430;2023-02-23T01:40:22;6.10;99.90
51619;DHT22;38518;53.164;5.430;2023-02-23T01:43:05;6.70;99.90
51619;DHT22;38518;53.164;5.430;2023-02-23T01:45:37;6.60;99.90
51619;DHT22;38518;53.164;5.430;2023-02-23T01:48:07;6.50;99.90
51619;DHT22;38518;53.164;5.430;2023-02-23T01:51:06;6.50;99.90
51619;DHT22;38518;53.164;5.430;2023-02-23T01:53:39;6.40;99.90
51619;DHT22;38518;53.164;5.430;2023-02-23T01:56:09;6.40;99.90
51619;DHT22;38518;53.164;5.430;2023-02-23T01:58:38;6.30;99.90
51619;DHT22;38518;53.164;5.430;2023-02-23T02:01:06;6.30;99.90
51619;DHT22;38518;53.164;5.430;2023-02-23T02:03:36;6.30;99.90
51619;DHT22;38518;53.164;5.430;2023-02-23T02:06:04;6.40;99.90
51619;DHT22;38518;53.164;5.430;2023-02-23T02:08:37;6.40;99.90
51619;DHT22;38518;53.164;5.430;2023-02-23T02:11:10;6.40;99.90
51619;DHT22;38518;53.164;5.430;2023-02-23T02:13:58;6.40;99.90
51619;DHT22;38518;53.164;5.430;2023-02-23T02:24:37;6.40;99.90
51619;DHT22;38518;53.164;5.430;2023-02-23T02:30:03;6.40;99.90
51619;DHT22;38518;53.164;5.430;2023-02-23T02:41:13;6.40;1.00
51619;DHT22;38518;53.164;5.430;2023-02-23T02:46:32;6.50;1.00
51619;DHT22;38518;53.164;5.430;2023-02-23T02:51:47;6.60;1.00
51619;DHT22;38518;53.164;5.430;2023-02-23T02:54:23;6.60;1.00
51619;DHT22;38518;53.164;5.430;2023-02-23T02:56:51;6.60;1.00
51619;DHT22;38518;53.164;5.430;2023-02-23T02:59:19;6.60;1.00
51619;DHT22;38518;53.164;5.430;2023-02-23T03:02:05;6.60;1.00
51619;DHT22;38518;53.164;5.430;2023-02-23T03:04:49;6.70;1.00
51619;DHT22;38518;53.164;5.430;2023-02-23T03:14:01;6.70;1.00
51619;DHT22;38518;53.164;5.430;2023-02-23T03:17:13;6.70;1.00
51619;DHT22;38518;53.164;5.430;2023-02-23T03:23:03;6.70;1.00
51619;DHT22;38518;53.164;5.430;2023-02-23T03:26:13;6.70;1.00
51619;DHT22;38518;53.164;5.430;2023-02-23T03:32:23;6.80;1.00
51619;DHT22;38518;53.164;5.430;2023-02-23T03:35:23;6.70;1.00
51619;DHT22;38518;53.164;5.430;2023-02-23T03:38:39;6.80;1.00
51619;DHT22;38518;53.164;5.430;2023-02-23T03:41:27;6.80;1.00
51619;DHT22;38518;53.164;5.430;2023-02-23T03:44:18;6.80;1.00
51619;DHT22;38518;53.164;5.430;2023-02-23T03:47:07;6.80;1.00
51619;DHT22;38518;53.164;5.430;2023-02-23T03:49:53;6.90;1.00
51619;DHT22;38518;53.164;5.430;2023-02-23T03:52:45;6.90;1.00
51619;DHT22;38518;53.164;5.430;2023-02-23T03:55:35;6.90;1.00
51619;DHT22;38518;53.164;5.430;2023-02-23T03:58:29;6.90;1.00
51619;DHT22;38518;53.164;5.430;2023-02-23T04:01:15;6.80;1.00
51619;DHT22;38518;53.164;5.430;2023-02-23T04:04:02;6.90;1.00
51619;DHT22;38518;53.164;5.430;2023-02-23T04:06:48;6.90;1.00
51619;DHT22;38518;53.164;5.430;2023-02-23T04:09:33;6.90;1.00
51619;DHT22;38518;53.164;5.430;2023-02-23T04:12:36;7.20;1.00
51619;DHT22;38518;53.164;5.430;2023-02-23T04:15:36;6.80;1.00
51619;DHT22;38518;53.164;5.430;2023-02-23T04:18:04;6.90;1.00
51619;DHT22;38518;53.164;5.430;2023-02-23T04:20:30;6.90;1.00
51619;DHT22;38518;53.164;5.430;2023-02-23T04:22:56;6.90;1.00
51619;DHT22;38518;53.164;5.430;2023-02-23T04:25:21;6.90;1.00
51619;DHT22;38518;53.164;5.430;2023-02-23T04:27:50;6.90;1.00
51619;DHT22;38518;53.164;5.430;2023-02-23T04:30:17;6.90;1.00
51619;DHT22;38518;53.164;5.430;2023-02-23T04:32:45;6.90;1.00
51619;DHT22;38518;53.164;5.430;2023-02-23T04:35:12;7.10;1.00
51619;DHT22;38518;53.164;5.430;2023-02-23T04:37:38;6.90;1.00
51619;DHT22;38518;53.164;5.430;2023-02-23T04:40:05;6.90;1.00
51619;DHT22;38518;53.164;5.430;2023-02-23T04:42:31;6.90;1.00
51619;DHT22;38518;53.164;5.430;2023-02-23T04:44:57;6.90;1.00
51619;DHT22;38518;53.164;5.430;2023-02-23T04:47:23;6.90;1.00
51619;DHT22;38518;53.164;5.430;2023-02-23T04:49:49;6.90;1.00
51619;DHT22;38518;53.164;5.430;2023-02-23T04:52:15;6.90;1.00
51619;DHT22;38518;53.164;5.430;2023-02-23T04:54:41;7.00;1.00
51619;DHT22;38518;53.164;5.430;2023-02-23T04:57:08;7.00;1.00
51619;DHT22;38518;53.164;5.430;2023-02-23T04:59:34;7.00;1.00
51619;DHT22;38518;53.164;5.430;2023-02-23T05:02:00;6.90;1.00
51619;DHT22;38518;53.164;5.430;2023-02-23T05:04:25;7.00;1.00
51619;DHT22;38518;53.164;5.430;2023-02-23T05:06:51;7.00;1.00
51619;DHT22;38518;53.164;5.430;2023-02-23T05:09:17;6.90;1.00
51619;DHT22;38518;53.164;5.430;2023-02-23T05:11:43;7.00;1.00
51619;DHT22;38518;53.164;5.430;2023-02-23T05:14:09;6.90;1.00
51619;DHT22;38518;53.164;5.430;2023-02-23T05:16:37;6.90;1.00
51619;DHT22;38518;53.164;5.430;2023-02-23T05:19:03;6.90;1.00
51619;DHT22;38518;53.164;5.430;2023-02-23T05:21:29;7.70;1.00
51619;DHT22;38518;53.164;5.430;2023-02-23T05:23:54;7.00;1.00
51619;DHT22;38518;53.164;5.430;2023-02-23T05:26:22;7.20;1.00
51619;DHT22;38518;53.164;5.430;2023-02-23T05:28:48;6.90;1.00
51619;DHT22;38518;53.164;5.430;2023-02-23T05:31:14;8.00;1.00
51619;DHT22;38518;53.164;5.430;2023-02-23T05:33:40;7.00;1.00
51619;DHT22;38518;53.164;5.430;2023-02-23T05:36:15;6.90;1.00
51619;DHT22;38518;53.164;5.430;2023-02-23T05:38:42;6.90;1.00
51619;DHT22;38518;53.164;5.430;2023-02-23T05:41:12;6.90;1.00
51619;DHT22;38518;53.164;5.430;2023-02-23T05:43:39;6.90;1.00
51619;DHT22;38518;53.164;5.430;2023-02-23T05:46:16;7.00;1.00
51619;DHT22;38518;53.164;5.430;2023-02-23T05:48:43;7.00;1.00
51619;DHT22;38518;53.164;5.430;2023-02-23T05:51:12;7.90;1.00
51619;DHT22;38518;53.164;5.430;2023-02-23T05:53:38;6.90;1.00
51619;DHT22;38518;53.164;5.430;2023-02-23T05:56:06;6.90;1.00
51619;DHT22;38518;53.164;5.430;2023-02-23T05:58:32;7.00;1.00
51619;DHT22;38518;53.164;5.430;2023-02-23T06:00:59;6.90;1.00
51619;DHT22;38518;53.164;5.430;2023-02-23T06:03:25;6.90;1.00
51619;DHT22;38518;53.164;5.430;2023-02-23T06:05:52;6.90;1.00
51619;DHT22;38518;53.164;5.430;2023-02-23T06:08:18;6.90;1.00
51619;DHT22;38518;53.164;5.430;2023-02-23T06:10:44;6.90;1.00
51619;DHT22;38518;53.164;5.430;2023-02-23T06:13:12;6.90;1.00
51619;DHT22;38518;53.164;5.430;2023-02-23T06:15:37;7.70;1.00
51619;DHT22;38518;53.164;5.430;2023-02-23T06:18:04;6.90;1.00
51619;DHT22;38518;53.164;5.430;2023-02-23T06:20:29;6.90;1.00
51619;DHT22;38518;53.164;5.430;2023-02-23T06:22:55;6.90;1.00
51619;DHT22;38518;53.164;5.430;2023-02-23T06:25:22;6.90;1.00
51619;DHT22;38518;53.164;5.430;2023-02-23T06:27:48;6.90;1.00
51619;DHT22;38518;53.164;5.430;2023-02-23T06:30:14;6.90;1.00
51619;DHT22;38518;53.164;5.430;2023-02-23T06:32:40;6.90;1.00
51619;DHT22;38518;53.164;5.430;2023-02-23T06:35:06;6.90;1.00
51619;DHT22;38518;53.164;5.430;2023-02-23T06:37:33;6.90;1.00
51619;DHT22;38518;53.164;5.430;2023-02-23T06:40:00;6.90;1.00
51619;DHT22;38518;53.164;5.430;2023-02-23T06:42:26;6.90;1.00
51619;DHT22;38518;53.164;5.430;2023-02-23T06:44:51;6.90;1.00
51619;DHT22;38518;53.164;5.430;2023-02-23T06:47:17;6.90;1.00
51619;DHT22;38518;53.164;5.430;2023-02-23T06:49:43;6.90;1.00
51619;DHT22;38518;53.164;5.430;2023-02-23T06:52:09;6.90;1.00
51619;DHT22;38518;53.164;5.430;2023-02-23T06:54:38;6.90;1.00
51619;DHT22;38518;53.164;5.430;2023-02-23T06:57:06;6.90;1.00
51619;DHT22;38518;53.164;5.430;2023-02-23T06:59:33;6.90;1.00
51619;DHT22;38518;53.164;5.430;2023-02-23T07:01:58;6.90;1.00
51619;DHT22;38518;53.164;5.430;2023-02-23T07:04:24;6.90;1.00
51619;DHT22;38518;53.164;5.430;2023-02-23T07:06:50;6.90;1.00
51619;DHT22;38518;53.164;5.430;2023-02-23T07:09:16;7.00;1.00
51619;DHT22;38518;53.164;5.430;2023-02-23T07:11:42;6.90;1.00
51619;DHT22;38518;53.164;5.430;2023-02-23T07:14:11;7.00;1.00
51619;DHT22;38518;53.164;5.430;2023-02-23T07:16:37;7.00;1.00
51619;DHT22;38518;53.164;5.430;2023-02-23T07:19:05;7.00;1.00
51619;DHT22;38518;53.164;5.430;2023-02-23T07:21:31;6.70;1.00
51619;DHT22;38518;53.164;5.430;2023-02-23T07:23:58;7.00;1.00
51619;DHT22;38518;53.164;5.430;2023-02-23T07:26:24;7.00;1.00
51619;DHT22;38518;53.164;5.430;2023-02-23T07:28:50;7.00;1.00
51619;DHT22;38518;53.164;5.430;2023-02-23T07:31:16;7.00;1.00
51619;DHT22;38518;53.164;5.430;2023-02-23T07:33:41;7.00;1.00
51619;DHT22;38518;53.164;5.430;2023-02-23T07:36:08;7.00;1.00
51619;DHT22;38518;53.164;5.430;2023-02-23T07:38:34;7.10;1.00
51619;DHT22;38518;53.164;5.430;2023-02-23T07:41:01;7.10;1.00
51619;DHT22;38518;53.164;5.430;2023-02-23T07:43:28;7.10;1.00
51619;DHT22;38518;53.164;5.430;2023-02-23T07:45:54;7.10;1.00
51619;DHT22;38518;53.164;5.430;2023-02-23T07:48:23;6.50;1.00
51619;DHT22;38518;53.164;5.430;2023-02-23T07:50:48;7.10;1.00
51619;DHT22;38518;53.164;5.430;2023-02-23T07:53:14;7.10;1.00
51619;DHT22;38518;53.164;5.430;2023-02-23T07:55:40;5.80;1.00
51619;DHT22;38518;53.164;5.430;2023-02-23T07:58:06;7.10;1.00
51619;DHT22;38518;53.164;5.430;2023-02-23T08:00:33;7.20;1.00
51619;DHT22;38518;53.164;5.430;2023-02-23T08:02:59;7.20;1.00
51619;DHT22;38518;53.164;5.430;2023-02-23T08:05:26;7.20;1.00
51619;DHT22;38518;53.164;5.430;2023-02-23T08:07:53;7.20;1.00
51619;DHT22;38518;53.164;5.430;2023-02-23T08:10:19;7.20;1.00
51619;DHT22;38518;53.164;5.430;2023-02-23T08:12:44;7.10;1.00
51619;DHT22;38518;53.164;5.430;2023-02-23T08:15:11;7.20;1.00
51619;DHT22;38518;53.164;5.430;2023-02-23T08:17:37;7.20;1.00
51619;DHT22;38518;53.164;5.430;2023-02-23T08:20:04;7.20;1.00
51619;DHT22;38518;53.164;5.430;2023-02-23T08:22:30;7.20;1.00
51619;DHT22;38518;53.164;5.430;2023-02-23T08:24:56;7.20;1.00
51619;DHT22;38518;53.164;5.430;2023-02-23T08:27:22;7.20;1.00
51619;DHT22;38518;53.164;5.430;2023-02-23T08:29:48;7.20;1.00
51619;DHT22;38518;53.164;5.430;2023-02-23T08:32:18;7.30;1.00
51619;DHT22;38518;53.164;5.430;2023-02-23T08:34:44;7.30;1.00
51619;DHT22;38518;53.164;5.430;2023-02-23T08:37:10;7.60;1.00
51619;DHT22;38518;53.164;5.430;2023-02-23T08:39:36;7.30;1.00
51619;DHT22;38518;53.164;5.430;2023-02-23T08:42:03;7.20;1.00
51619;DHT22;38518;53.164;5.430;2023-02-23T08:44:29;7.20;1.00
51619;DHT22;38518;53.164;5.430;2023-02-23T08:46:55;7.30;1.00
51619;DHT22;38518;53.164;5.430;2023-02-23T08:49:23;7.30;1.00
51619;DHT22;38518;53.164;5.430;2023-02-23T08:51:50;7.30;1.00
51619;DHT22;38518;53.164;5.430;2023-02-23T08:54:15;7.20;1.00
51619;DHT22;38518;53.164;5.430;2023-02-23T08:56:43;6.20;1.00
51619;DHT22;38518;53.164;5.430;2023-02-23T08:59:10;7.30;1.00
51619;DHT22;38518;53.164;5.430;2023-02-23T09:01:36;8.00;1.00
51619;DHT22;38518;53.164;5.430;2023-02-23T09:04:03;7.30;1.00
51619;DHT22;38518;53.164;5.430;2023-02-23T09:06:31;7.30;1.00
51619;DHT22;38518;53.164;5.430;2023-02-23T09:08:57;7.30;1.00
51619;DHT22;38518;53.164;5.430;2023-02-23T09:11:26;7.40;1.00
51619;DHT22;38518;53.164;5.430;2023-02-23T09:13:59;7.40;1.00
51619;DHT22;38518;53.164;5.430;2023-02-23T09:20:10;7.40;1.00
51619;DHT22;38518;53.164;5.430;2023-02-23T09:22:47;7.30;1.00
51619;DHT22;38518;53.164;5.430;2023-02-23T09:25:18;7.00;1.00
51619;DHT22;38518;53.164;5.430;2023-02-23T09:27:54;7.40;1.00
51619;DHT22;38518;53.164;5.430;2023-02-23T09:30:21;7.60;1.00
51619;DHT22;38518;53.164;5.430;2023-02-23T09:33:02;7.50;1.00
51619;DHT22;38518;53.164;5.430;2023-02-23T09:35:40;7.50;1.00
51619;DHT22;38518;53.164;5.430;2023-02-23T09:38:07;7.70;1.00
51619;DHT22;38518;53.164;5.430;2023-02-23T09:40:53;7.50;1.00
51619;DHT22;38518;53.164;5.430;2023-02-23T09:43:35;7.60;1.00
51619;DHT22;38518;53.164;5.430;2023-02-23T09:49:17;7.70;1.00
51619;DHT22;38518;53.164;5.430;2023-02-23T09:51:48;7.80;1.00
51619;DHT22;38518;53.164;5.430;2023-02-23T09:54:24;7.90;1.00
51619;DHT22;38518;53.164;5.430;2023-02-23T09:56:52;8.00;1.00
51619;DHT22;38518;53.164;5.430;2023-02-23T09:59:21;7.20;1.00
51619;DHT22;38518;53.164;5.430;2023-02-23T10:04:21;8.30;1.00
51619;DHT22;38518;53.164;5.430;2023-02-23T10:09:57;8.90;1.00
51619;DHT22;38518;53.164;5.430;2023-02-23T10:15:26;8.50;1.00
51619;DHT22;38518;53.164;5.430;2023-02-23T10:23:50;8.70;1.00
51619;DHT22;38518;53.164;5.430;2023-02-23T10:26:21;8.80;1.00
51619;DHT22;38518;53.164;5.430;2023-02-23T10:28:49;8.90;1.00
51619;DHT22;38518;53.164;5.430;2023-02-23T10:31:36;8.70;1.00
51619;DHT22;38518;53.164;5.430;2023-02-23T10:34:12;8.80;99.90
51619;DHT22;38518;53.164;5.430;2023-02-23T10:37:04;8.90;99.90
51619;DHT22;38518;53.164;5.430;2023-02-23T10:39:32;8.90;99.90
51619;DHT22;38518;53.164;5.430;2023-02-23T10:42:00;8.90;99.90
51619;DHT22;38518;53.164;5.430;2023-02-23T10:44:27;8.90;99.90
51619;DHT22;38518;53.164;5.430;2023-02-23T10:47:05;8.80;99.90
51619;DHT22;38518;53.164;5.430;2023-02-23T10:49:45;8.80;99.90
51619;DHT22;38518;53.164;5.430;2023-02-23T10:52:12;8.70;99.90
51619;DHT22;38518;53.164;5.430;2023-02-23T10:54:44;8.70;99.90
51619;DHT22;38518;53.164;5.430;2023-02-23T10:57:34;8.70;99.90
51619;DHT22;38518;53.164;5.430;2023-02-23T11:00:09;8.60;99.90
51619;DHT22;38518;53.164;5.430;2023-02-23T11:02:52;8.60;99.90
51619;DHT22;38518;53.164;5.430;2023-02-23T11:08:08;8.50;99.90
51619;DHT22;38518;53.164;5.430;2023-02-23T11:10:34;8.40;99.90
51619;DHT22;38518;53.164;5.430;2023-02-23T11:12:59;8.20;99.90
51619;DHT22;38518;53.164;5.430;2023-02-23T11:15:28;8.00;99.90
51619;DHT22;38518;53.164;5.430;2023-02-23T11:17:57;8.10;99.90
51619;DHT22;38518;53.164;5.430;2023-02-23T11:23:21;7.90;99.90
51619;DHT22;38518;53.164;5.430;2023-02-23T11:25:51;7.90;99.90
51619;DHT22;38518;53.164;5.430;2023-02-23T11:28:35;7.80;99.90
51619;DHT22;38518;53.164;5.430;2023-02-23T11:31:29;7.80;99.90
51619;DHT22;38518;53.164;5.430;2023-02-23T11:33:56;7.80;99.90
51619;DHT22;38518;53.164;5.430;2023-02-23T11:39:05;7.80;99.90
51619;DHT22;38518;53.164;5.430;2023-02-23T11:41:31;7.80;99.90
51619;DHT22;38518;53.164;5.430;2023-02-23T11:44:00;7.90;99.90
51619;DHT22;38518;53.164;5.430;2023-02-23T11:46:28;7.80;99.90
51619;DHT22;38518;53.164;5.430;2023-02-23T11:49:05;7.90;99.90
51619;DHT22;38518;53.164;5.430;2023-02-23T11:51:37;7.90;99.90
51619;DHT22;38518;53.164;5.430;2023-02-23T11:54:06;7.90;99.90
51619;DHT22;38518;53.164;5.430;2023-02-23T11:56:40;7.90;99.90
51619;DHT22;38518;53.164;5.430;2023-02-23T11:59:17;7.90;99.90
51619;DHT22;38518;53.164;5.430;2023-02-23T12:01:48;7.90;99.90
51619;DHT22;38518;53.164;5.430;2023-02-23T12:04:35;7.90;99.90
51619;DHT22;38518;53.164;5.430;2023-02-23T12:07:24;7.90;99.90
51619;DHT22;38518;53.164;5.430;2023-02-23T12:10:06;8.00;99.90
51619;DHT22;38518;53.164;5.430;2023-02-23T12:18:58;8.00;99.90
51619;DHT22;38518;53.164;5.430;2023-02-23T12:30:15;7.90;99.90
51619;DHT22;38518;53.164;5.430;2023-02-23T12:35:19;8.90;99.90
51619;DHT22;38518;53.164;5.430;2023-02-23T12:37:52;7.80;99.90
51619;DHT22;38518;53.164;5.430;2023-02-23T12:40:25;7.80;99.90
51619;DHT22;38518;53.164;5.430;2023-02-23T12:43:06;7.70;99.90
51619;DHT22;38518;53.164;5.430;2023-02-23T12:45:55;7.80;99.90
51619;DHT22;38518;53.164;5.430;2023-02-23T12:51:27;7.70;99.90
51619;DHT22;38518;53.164;5.430;2023-02-23T12:53:54;7.70;99.90
51619;DHT22;38518;53.164;5.430;2023-02-23T12:56:38;7.60;99.90
51619;DHT22;38518;53.164;5.430;2023-02-23T12:59:17;7.80;99.90
51619;DHT22;38518;53.164;5.430;2023-02-23T13:02:00;7.60;99.90
51619;DHT22;38518;53.164;5.430;2023-02-23T13:10:31;7.50;99.90
51619;DHT22;38518;53.164;5.430;2023-02-23T13:13:32;7.50;99.90
51619;DHT22;38518;53.164;5.430;2023-02-23T13:16:15;7.50;99.90
51619;DHT22;38518;53.164;5.430;2023-02-23T13:21:26;7.50;99.90
51619;DHT22;38518;53.164;5.430;2023-02-23T13:24:22;7.50;99.90
51619;DHT22;38518;53.164;5.430;2023-02-23T13:26:59;7.40;99.90
51619;DHT22;38518;53.164;5.430;2023-02-23T13:29:40;7.40;99.90
51619;DHT22;38518;53.164;5.430;2023-02-23T13:32:17;6.80;99.90
51619;DHT22;38518;53.164;5.430;2023-02-23T13:35:01;7.40;99.90
51619;DHT22;38518;53.164;5.430;2023-02-23T13:38:06;7.40;99.90
51619;DHT22;38518;53.164;5.430;2023-02-23T13:51:26;8.30;99.90
51619;DHT22;38518;53.164;5.430;2023-02-23T13:54:16;7.60;99.90
51619;DHT22;38518;53.164;5.430;2023-02-23T13:56:56;7.40;94.50
51619;DHT22;38518;53.164;5.430;2023-02-23T13:59:29;7.60;93.40
51619;DHT22;38518;53.164;5.430;2023-02-23T14:07:50;7.40;55.20
51619;DHT22;38518;53.164;5.430;2023-02-23T14:10:18;7.50;60.80
51619;DHT22;38518;53.164;5.430;2023-02-23T14:20:54;7.50;21.60
51619;DHT22;38518;53.164;5.430;2023-02-23T14:26:09;7.60;25.70
51619;DHT22;38518;53.164;5.430;2023-02-23T14:39:23;8.10;12.40
51619;DHT22;38518;53.164;5.430;2023-02-23T14:41:55;8.90;1.00
51619;DHT22;38518;53.164;5.430;2023-02-23T14:44:30;9.00;1.00
51619;DHT22;38518;53.164;5.430;2023-02-23T14:47:10;9.00;1.00
51619;DHT22;38518;53.164;5.430;2023-02-23T14:49:42;8.90;1.00
51619;DHT22;38518;53.164;5.430;2023-02-23T14:52:34;8.70;1.00
51619;DHT22;38518;53.164;5.430;2023-02-23T14:57:52;8.50;1.00
51619;DHT22;38518;53.164;5.430;2023-02-23T15:00:30;8.60;1.00
51619;DHT22;38518;53.164;5.430;2023-02-23T15:02:58;8.60;1.00
51619;DHT22;38518;53.164;5.430;2023-02-23T15:05:28;7.60;1.00
51619;DHT22;38518;53.164;5.430;2023-02-23T15:08:00;8.60;1.00
51619;DHT22;38518;53.164;5.430;2023-02-23T15:10:33;8.70;1.00
51619;DHT22;38518;53.164;5.430;2023-02-23T15:13:08;8.50;1.00
51619;DHT22;38518;53.164;5.430;2023-02-23T15:15:34;8.60;1.00
51619;DHT22;38518;53.164;5.430;2023-02-23T15:18:02;8.30;1.00
51619;DHT22;38518;53.164;5.430;2023-02-23T15:20:31;8.10;1.00
51619;DHT22;38518;53.164;5.430;2023-02-23T15:23:05;7.90;1.00
51619;DHT22;38518;53.164;5.430;2023-02-23T15:25:38;7.90;1.00
51619;DHT22;38518;53.164;5.430;2023-02-23T15:28:21;7.70;1.00
51619;DHT22;38518;53.164;5.430;2023-02-23T15:30:49;7.60;1.00
51619;DHT22;38518;53.164;5.430;2023-02-23T15:33:17;7.50;1.00
51619;DHT22;38518;53.164;5.430;2023-02-23T15:36:06;7.40;1.00
51619;DHT22;38518;53.164;5.430;2023-02-23T15:38:45;7.40;1.00
51619;DHT22;38518;53.164;5.430;2023-02-23T15:46:28;7.50;1.00
51619;DHT22;38518;53.164;5.430;2023-02-23T15:48:58;7.40;1.00
51619;DHT22;38518;53.164;5.430;2023-02-23T15:51:41;7.40;1.00
51619;DHT22;38518;53.164;5.430;2023-02-23T15:54:30;7.40;1.00
51619;DHT22;38518;53.164;5.430;2023-02-23T15:57:02;6.00;1.00
51619;DHT22;38518;53.164;5.430;2023-02-23T15:59:35;7.30;1.00
51619;DHT22;38518;53.164;5.430;2023-02-23T16:02:09;7.20;1.00
51619;DHT22;38518;53.164;5.430;2023-02-23T16:04:39;7.00;1.00
51619;DHT22;38518;53.164;5.430;2023-02-23T16:07:22;7.00;1.00
51619;DHT22;38518;53.164;5.430;2023-02-23T16:12:22;7.00;1.00
51619;DHT22;38518;53.164;5.430;2023-02-23T16:14:54;6.80;1.00
51619;DHT22;38518;53.164;5.430;2023-02-23T16:20:16;6.60;1.00
51619;DHT22;38518;53.164;5.430;2023-02-23T16:22:44;6.60;1.00
51619;DHT22;38518;53.164;5.430;2023-02-23T16:25:14;6.80;1.00
51619;DHT22;38518;53.164;5.430;2023-02-23T16:27:42;6.50;1.00
51619;DHT22;38518;53.164;5.430;2023-02-23T16:30:22;6.50;1.00
51619;DHT22;38518;53.164;5.430;2023-02-23T16:35:45;6.60;1.00
51619;DHT22;38518;53.164;5.430;2023-02-23T16:38:14;6.50;1.00
51619;DHT22;38518;53.164;5.430;2023-02-23T16:40:45;6.50;1.00
51619;DHT22;38518;53.164;5.430;2023-02-23T16:43:13;6.40;1.00
51619;DHT22;38518;53.164;5.430;2023-02-23T16:45:40;6.50;1.00
51619;DHT22;38518;53.164;5.430;2023-02-23T16:48:17;6.30;1.00
51619;DHT22;38518;53.164;5.430;2023-02-23T16:50:43;6.30;1.00
51619;DHT22;38518;53.164;5.430;2023-02-23T16:53:11;6.20;1.00
51619;DHT22;38518;53.164;5.430;2023-02-23T16:55:46;6.10;1.00
51619;DHT22;38518;53.164;5.430;2023-02-23T16:58:21;6.10;1.00
51619;DHT22;38518;53.164;5.430;2023-02-23T17:00:49;6.10;1.00
51619;DHT22;38518;53.164;5.430;2023-02-23T17:03:19;6.10;1.00
51619;DHT22;38518;53.164;5.430;2023-02-23T17:05:46;6.10;1.00
51619;DHT22;38518;53.164;5.430;2023-02-23T17:08:12;6.00;1.00
51619;DHT22;38518;53.164;5.430;2023-02-23T17:10:38;6.00;1.00
51619;DHT22;38518;53.164;5.430;2023-02-23T17:13:16;6.10;1.00
51619;DHT22;38518;53.164;5.430;2023-02-23T17:15:43;6.00;1.00
51619;DHT22;38518;53.164;5.430;2023-02-23T17:18:22;5.90;1.00
51619;DHT22;38518;53.164;5.430;2023-02-23T17:20:49;5.90;1.00
51619;DHT22;38518;53.164;5.430;2023-02-23T17:23:16;5.80;1.00
51619;DHT22;38518;53.164;5.430;2023-02-23T17:25:42;5.80;1.00
51619;DHT22;38518;53.164;5.430;2023-02-23T17:28:08;5.70;1.00
51619;DHT22;38518;53.164;5.430;2023-02-23T17:30:35;5.60;1.00
51619;DHT22;38518;53.164;5.430;2023-02-23T17:33:03;5.60;1.00
51619;DHT22;38518;53.164;5.430;2023-02-23T17:35:29;6.50;1.00
51619;DHT22;38518;53.164;5.430;2023-02-23T17:38:03;5.40;1.00
51619;DHT22;38518;53.164;5.430;2023-02-23T17:40:29;5.20;1.00
51619;DHT22;38518;53.164;5.430;2023-02-23T17:42:59;6.20;1.00
51619;DHT22;38518;53.164;5.430;2023-02-23T17:45:27;5.40;1.00
51619;DHT22;38518;53.164;5.430;2023-02-23T17:47:53;6.00;1.00
51619;DHT22;38518;53.164;5.430;2023-02-23T17:50:19;5.00;1.00
51619;DHT22;38518;53.164;5.430;2023-02-23T17:52:50;6.10;1.00
51619;DHT22;38518;53.164;5.430;2023-02-23T17:55:17;5.70;1.00
51619;DHT22;38518;53.164;5.430;2023-02-23T17:57:44;4.90;1.00
51619;DHT22;38518;53.164;5.430;2023-02-23T18:00:15;5.00;1.00
51619;DHT22;38518;53.164;5.430;2023-02-23T18:02:43;4.90;1.00
51619;DHT22;38518;53.164;5.430;2023-02-23T18:05:12;4.30;1.00
51619;DHT22;38518;53.164;5.430;2023-02-23T18:07:39;4.80;1.00
51619;DHT22;38518;53.164;5.430;2023-02-23T18:10:06;4.80;1.00
51619;DHT22;38518;53.164;5.430;2023-02-23T18:13:04;4.80;1.00
51619;DHT22;38518;53.164;5.430;2023-02-23T18:16:07;4.80;1.00
51619;DHT22;38518;53.164;5.430;2023-02-23T18:18:53;4.80;1.00
51619;DHT22;38518;53.164;5.430;2023-02-23T18:21:22;4.80;1.00
51619;DHT22;38518;53.164;5.430;2023-02-23T18:23:49;4.80;1.00
51619;DHT22;38518;53.164;5.430;2023-02-23T18:26:22;3.90;1.00
51619;DHT22;38518;53.164;5.430;2023-02-23T18:28:48;4.50;1.00
51619;DHT22;38518;53.164;5.430;2023-02-23T18:31:24;4.60;1.00
51619;DHT22;38518;53.164;5.430;2023-02-23T18:33:52;4.70;1.00
51619;DHT22;38518;53.164;5.430;2023-02-23T18:36:24;4.30;1.00
51619;DHT22;38518;53.164;5.430;2023-02-23T18:38:51;4.40;1.00
51619;DHT22;38518;53.164;5.430;2023-02-23T18:41:17;4.60;1.00
51619;DHT22;38518;53.164;5.430;2023-02-23T18:43:43;4.30;1.00
51619;DHT22;38518;53.164;5.430;2023-02-23T18:46:11;4.30;1.00
51619;DHT22;38518;53.164;5.430;2023-02-23T18:48:38;4.30;1.00
51619;DHT22;38518;53.164;5.430;2023-02-23T18:51:06;4.30;1.00
51619;DHT22;38518;53.164;5.430;2023-02-23T18:53:37;5.20;1.00
51619;DHT22;38518;53.164;5.430;2023-02-23T18:56:12;4.30;1.00
51619;DHT22;38518;53.164;5.430;2023-02-23T18:58:38;4.30;1.00